createdAt,value
2022-11-20T00:14:00.371Z,1013.9
2022-11-20T00:28:56.501Z,1013.9
2022-11-20T00:43:53.405Z,1013.8
2022-11-20T00:58:49.628Z,1013.9
2022-11-20T01:13:46.049Z,1013.8
2022-11-20T01:28:42.372Z,1013.7
2022-11-20T01:43:38.569Z,1013.7
2022-11-20T01:58:35.199Z,1013.6
2022-11-20T02:13:31.356Z,1013.6
2022-11-20T02:28:27.396Z,1013.7
2022-11-20T02:43:23.978Z,1013.6
2022-11-20T02:58:20.322Z,1013.4
2022-11-20T03:13:16.754Z,1013.2
2022-11-20T03:28:13.380Z,1013.4
2022-11-20T03:43:09.551Z,1013.4
2022-11-20T03:58:05.596Z,1013.3
2022-11-20T04:13:02.138Z,1013.1
2022-11-20T04:27:58.430Z,1013.1
2022-11-20T04:42:55.338Z,1012.9
2022-11-20T04:57:50.796Z,1013
2022-11-20T05:12:47.103Z,1012.9
2022-11-20T05:27:43.657Z,1012.8
2022-11-20T05:42:40.367Z,1012.9
2022-11-20T05:57:36.568Z,1013
2022-11-20T06:12:32.653Z,1013
2022-11-20T06:27:29.016Z,1013
2022-11-20T06:42:25.180Z,1013
2022-11-20T06:57:22.088Z,1013
2022-11-20T07:12:18.174Z,1013.3
2022-11-20T07:27:14.499Z,1013.4
2022-11-20T07:42:10.456Z,1013.5
2022-11-20T07:57:06.720Z,1013.4
2022-11-20T08:12:02.933Z,1013.5
2022-11-20T08:26:58.932Z,1013.5
2022-11-20T08:41:55.599Z,1013.5
2022-11-20T08:56:51.523Z,1013.5
2022-11-20T09:11:47.928Z,1013.5
2022-11-20T09:26:44.902Z,1013.4
2022-11-20T09:41:41.444Z,1013.3
2022-11-20T09:56:37.941Z,1013.1
2022-11-20T10:11:34.411Z,1013.1
2022-11-20T10:26:30.212Z,1013
2022-11-20T10:41:26.640Z,1012.6
2022-11-20T10:56:22.455Z,1012.5
2022-11-20T11:11:18.570Z,1012.3
2022-11-20T11:26:14.516Z,1012.2
2022-11-20T11:41:10.824Z,1011.9
2022-11-20T11:56:07.119Z,1011.7
2022-11-20T12:11:03.405Z,1011.4
2022-11-20T12:25:59.377Z,1011.1
2022-11-20T12:40:55.409Z,1011
2022-11-20T12:55:51.553Z,1010.9
2022-11-20T13:10:48.011Z,1010.6
2022-11-20T13:25:44.208Z,1010.4
2022-11-20T13:40:40.135Z,1010.2
2022-11-20T13:55:35.700Z,1010
2022-11-20T14:10:32.508Z,1009.7
2022-11-20T14:25:27.773Z,1009.5
2022-11-20T14:40:23.550Z,1009.4
2022-11-20T14:55:20.091Z,1009.2
2022-11-20T15:10:16.036Z,1009.3
2022-11-20T15:25:12.304Z,1009.2
2022-11-20T15:40:08.621Z,1009
2022-11-20T15:55:09.469Z,1008.4
2022-11-20T16:10:00.846Z,1008.2
2022-11-20T16:17:22.149Z,1008.1
2022-11-20T16:32:18.083Z,1007.9
2022-11-20T16:47:13.573Z,1007.7
2022-11-20T17:02:09.882Z,1007.5
2022-11-20T17:17:06.195Z,1007.2
2022-11-20T17:44:40.261Z,1006.9
2022-11-20T17:59:36.270Z,1006.7
2022-11-20T18:14:32.437Z,1006.4
2022-11-20T18:29:28.630Z,1006.3
2022-11-20T18:44:25.241Z,1006.2
2022-11-20T18:59:21.138Z,1006.1
2022-11-20T19:14:17.355Z,1006
2022-11-20T19:29:13.541Z,1006.1
2022-11-20T19:44:10.242Z,1006
2022-11-20T19:59:05.800Z,1006
2022-11-20T20:14:01.418Z,1005.9
2022-11-20T20:28:57.797Z,1006
2022-11-20T20:43:54.156Z,1006.1
2022-11-20T20:58:50.296Z,1006.1
2022-11-20T21:13:46.458Z,1006.1
2022-11-20T21:28:42.930Z,1006.1
2022-11-20T21:43:39.442Z,1006
2022-11-20T21:58:36.090Z,1006.1
2022-11-20T22:13:32.470Z,1006.1
2022-11-20T22:28:28.503Z,1006.3
2022-11-20T22:43:24.437Z,1006.2
2022-11-20T22:58:20.748Z,1006.4
2022-11-20T23:13:17.089Z,1006.4
2022-11-20T23:28:13.286Z,1006.6
2022-11-20T23:43:09.446Z,1006.6
2022-11-20T23:58:05.845Z,1006.6
